This is the latest recevied weather packets stored in our database for station/object IK0TIX. If no packets are shown the sender has not sent any weather packets the latest 10 day(s).
| Time | Temp. | Humidity | Pressure | Rain* | Wind** | Luminosity | Snow |
|---|---|---|---|---|---|---|---|
| 1777462803 | 26.67° C | 27% | 1016.4 hPa | 0 mm | - | - | - |
| 1777462504 | 26.67° C | 27% | 1016.4 hPa | 0 mm | - | - | - |
| 1777462174 | 26.67° C | 27% | 1016.4 hPa | 0 mm | - | - | - |
| 1777461870 | 26.67° C | 27% | 1016.5 hPa | 0 mm | - | - | - |
| 1777460683 | 26.67° C | 28% | 1016.5 hPa | 0 mm | - | - | - |
| 1777460393 | 26.67° C | 28% | 1016.5 hPa | 0 mm | - | - | - |
| 1777459480 | 26.67° C | 28% | 1016.5 hPa | 0 mm | - | - | - |
| 1777458887 | 26.67° C | 29% | 1016.6 hPa | 0 mm | - | - | - |
| 1777457987 | 26.11° C | 35% | 1016.6 hPa | 0 mm | - | - | - |
| 1777454985 | 24.44° C | 37% | 1016.6 hPa | 0 mm | - | - | - |
| 1777454678 | 24.44° C | 40% | 1016.6 hPa | 0 mm | - | - | - |
| 1777453793 | 23.33° C | 40% | 1016.5 hPa | 0 mm | - | - | - |
| 1777450482 | 20.56° C | 54% | 1016.5 hPa | 0 mm | - | - | - |
| 1777449899 | 20° C | 54% | 1016.6 hPa | 0 mm | - | - | - |
| 1777447772 | 18.33° C | 59% | 1016.3 hPa | 0 mm | - | - | - |
| 1777447181 | 17.22° C | 60% | 1016.4 hPa | 0 mm | - | - | - |
| 1777444801 | 15.56° C | 64% | 1016.6 hPa | 0 mm | - | - | - |
| 1777444478 | 15.56° C | 64% | 1016.6 hPa | 0 mm | - | - | - |
| 1777442386 | 14.44° C | 67% | 1016.5 hPa | 0 mm | - | - | - |
| 1777441482 | 13.89° C | 67% | 1016.5 hPa | 0 mm | - | - | - |
| 1777440870 | 13.89° C | 68% | 1016.6 hPa | 0 mm | - | - | - |
| 1777439400 | 13.33° C | 70% | 1016.6 hPa | 0 mm | - | - | - |
| 1777438481 | 13.33° C | 71% | 1016.4 hPa | 0 mm | - | - | - |
| 1777437274 | 13.33° C | 70% | 1016.4 hPa | 0 mm | - | - | - |
| 1777434575 | 13.33° C | 71% | 1016.1 hPa | 0 mm | - | - | - |
* Rain latest hour (hover to see other rain measurements)
** Current wind speed in m/s (hover to see current wind gust speed)